sensor_id;sensor_type;location;lat;lon;timestamp;temperature;humidity
20845;DHT22;10583;49.084;8.646;2023-02-27T00:00:06;-0.70;99.90
20845;DHT22;10583;49.084;8.646;2023-02-27T00:02:39;-0.70;99.90
20845;DHT22;10583;49.084;8.646;2023-02-27T00:05:06;-0.70;99.90
20845;DHT22;10583;49.084;8.646;2023-02-27T00:07:33;-0.70;99.90
20845;DHT22;10583;49.084;8.646;2023-02-27T00:09:59;-0.70;99.90
20845;DHT22;10583;49.084;8.646;2023-02-27T00:12:26;-0.70;99.90
20845;DHT22;10583;49.084;8.646;2023-02-27T00:14:55;-0.60;99.90
20845;DHT22;10583;49.084;8.646;2023-02-27T00:17:23;-0.60;99.90
20845;DHT22;10583;49.084;8.646;2023-02-27T00:19:53;-0.70;99.90
20845;DHT22;10583;49.084;8.646;2023-02-27T00:22:19;-0.70;99.90
20845;DHT22;10583;49.084;8.646;2023-02-27T00:24:46;-0.70;99.90
20845;DHT22;10583;49.084;8.646;2023-02-27T00:27:13;-0.70;99.90
20845;DHT22;10583;49.084;8.646;2023-02-27T00:29:39;-0.70;99.90
20845;DHT22;10583;49.084;8.646;2023-02-27T00:32:06;-0.70;99.90
20845;DHT22;10583;49.084;8.646;2023-02-27T00:34:34;-0.70;99.90
20845;DHT22;10583;49.084;8.646;2023-02-27T00:37:01;-0.70;99.90
20845;DHT22;10583;49.084;8.646;2023-02-27T00:39:27;-0.70;99.90
20845;DHT22;10583;49.084;8.646;2023-02-27T00:41:54;-0.70;99.90
20845;DHT22;10583;49.084;8.646;2023-02-27T00:44:21;-0.70;99.90
20845;DHT22;10583;49.084;8.646;2023-02-27T00:46:47;-0.70;99.90
20845;DHT22;10583;49.084;8.646;2023-02-27T00:49:14;-0.70;99.90
20845;DHT22;10583;49.084;8.646;2023-02-27T00:51:42;-0.80;99.90
20845;DHT22;10583;49.084;8.646;2023-02-27T00:54:09;-0.80;99.90
20845;DHT22;10583;49.084;8.646;2023-02-27T00:56:35;-0.80;99.90
20845;DHT22;10583;49.084;8.646;2023-02-27T00:59:02;-0.80;99.90
20845;DHT22;10583;49.084;8.646;2023-02-27T01:01:29;-0.80;99.90
20845;DHT22;10583;49.084;8.646;2023-02-27T01:03:56;-0.80;99.90
20845;DHT22;10583;49.084;8.646;2023-02-27T01:06:22;-0.80;99.90
20845;DHT22;10583;49.084;8.646;2023-02-27T01:08:50;-0.90;99.90
20845;DHT22;10583;49.084;8.646;2023-02-27T01:11:17;-0.90;99.90
20845;DHT22;10583;49.084;8.646;2023-02-27T01:13:44;-0.90;99.90
20845;DHT22;10583;49.084;8.646;2023-02-27T01:16:11;-0.90;99.90
20845;DHT22;10583;49.084;8.646;2023-02-27T01:18:38;-0.90;99.90
20845;DHT22;10583;49.084;8.646;2023-02-27T01:21:05;-0.90;99.90
20845;DHT22;10583;49.084;8.646;2023-02-27T01:23:32;-0.90;99.90
20845;DHT22;10583;49.084;8.646;2023-02-27T01:26:00;-0.90;99.90
20845;DHT22;10583;49.084;8.646;2023-02-27T01:28:27;-0.90;99.90
20845;DHT22;10583;49.084;8.646;2023-02-27T01:30:54;-0.90;99.90
20845;DHT22;10583;49.084;8.646;2023-02-27T01:33:21;-0.90;99.90
20845;DHT22;10583;49.084;8.646;2023-02-27T01:35:47;-0.80;99.90
20845;DHT22;10583;49.084;8.646;2023-02-27T01:38:14;-0.90;99.90
20845;DHT22;10583;49.084;8.646;2023-02-27T01:40:42;-0.80;99.90
20845;DHT22;10583;49.084;8.646;2023-02-27T01:43:13;-0.80;99.90
20845;DHT22;10583;49.084;8.646;2023-02-27T01:45:41;-0.80;99.90
20845;DHT22;10583;49.084;8.646;2023-02-27T01:48:14;-0.90;99.90
20845;DHT22;10583;49.084;8.646;2023-02-27T01:50:45;-0.80;99.90
20845;DHT22;10583;49.084;8.646;2023-02-27T01:53:12;-0.80;99.90
20845;DHT22;10583;49.084;8.646;2023-02-27T01:55:40;-0.90;99.90
20845;DHT22;10583;49.084;8.646;2023-02-27T01:58:10;-0.90;99.90
20845;DHT22;10583;49.084;8.646;2023-02-27T02:00:38;-0.90;99.90
20845;DHT22;10583;49.084;8.646;2023-02-27T02:03:12;-0.90;99.90
20845;DHT22;10583;49.084;8.646;2023-02-27T02:05:41;-1.00;99.90
20845;DHT22;10583;49.084;8.646;2023-02-27T02:08:09;-1.00;99.90
20845;DHT22;10583;49.084;8.646;2023-02-27T02:10:36;-1.00;99.90
20845;DHT22;10583;49.084;8.646;2023-02-27T02:13:03;-1.10;99.90
20845;DHT22;10583;49.084;8.646;2023-02-27T02:15:35;-1.10;99.90
20845;DHT22;10583;49.084;8.646;2023-02-27T02:18:13;-1.00;99.90
20845;DHT22;10583;49.084;8.646;2023-02-27T02:24:22;-1.00;99.90
20845;DHT22;10583;49.084;8.646;2023-02-27T02:27:02;-1.10;99.90
20845;DHT22;10583;49.084;8.646;2023-02-27T02:30:03;-1.10;99.90
20845;DHT22;10583;49.084;8.646;2023-02-27T02:32:55;-1.10;99.90
20845;DHT22;10583;49.084;8.646;2023-02-27T02:38:49;-1.10;99.90
20845;DHT22;10583;49.084;8.646;2023-02-27T02:41:24;-1.10;99.90
20845;DHT22;10583;49.084;8.646;2023-02-27T02:44:01;-1.10;99.90
20845;DHT22;10583;49.084;8.646;2023-02-27T02:46:34;-1.10;99.90
20845;DHT22;10583;49.084;8.646;2023-02-27T02:49:05;-1.20;99.90
20845;DHT22;10583;49.084;8.646;2023-02-27T02:51:40;-1.20;99.90
20845;DHT22;10583;49.084;8.646;2023-02-27T02:54:13;-1.20;99.90
20845;DHT22;10583;49.084;8.646;2023-02-27T02:56:45;-1.10;99.90
20845;DHT22;10583;49.084;8.646;2023-02-27T02:59:16;-1.20;99.90
20845;DHT22;10583;49.084;8.646;2023-02-27T03:01:48;-1.20;99.90
20845;DHT22;10583;49.084;8.646;2023-02-27T03:04:21;-1.20;99.90
20845;DHT22;10583;49.084;8.646;2023-02-27T03:06:53;-1.20;99.90
20845;DHT22;10583;49.084;8.646;2023-02-27T03:09:25;-1.30;99.90
20845;DHT22;10583;49.084;8.646;2023-02-27T03:11:55;-1.30;99.90
20845;DHT22;10583;49.084;8.646;2023-02-27T03:14:28;-1.30;99.90
20845;DHT22;10583;49.084;8.646;2023-02-27T03:16:59;-1.30;99.90
20845;DHT22;10583;49.084;8.646;2023-02-27T03:19:31;-1.30;99.90
20845;DHT22;10583;49.084;8.646;2023-02-27T03:22:02;-1.30;99.90
20845;DHT22;10583;49.084;8.646;2023-02-27T03:24:36;-1.30;99.90
20845;DHT22;10583;49.084;8.646;2023-02-27T03:27:05;-1.40;99.90
20845;DHT22;10583;49.084;8.646;2023-02-27T03:29:37;-1.40;99.90
20845;DHT22;10583;49.084;8.646;2023-02-27T03:32:09;-1.40;99.90
20845;DHT22;10583;49.084;8.646;2023-02-27T03:34:39;-1.40;99.90
20845;DHT22;10583;49.084;8.646;2023-02-27T03:37:16;-1.40;99.90
20845;DHT22;10583;49.084;8.646;2023-02-27T03:39:49;-1.50;99.90
20845;DHT22;10583;49.084;8.646;2023-02-27T03:42:25;-1.50;99.90
20845;DHT22;10583;49.084;8.646;2023-02-27T03:44:59;-1.40;99.90
20845;DHT22;10583;49.084;8.646;2023-02-27T03:47:28;-1.50;99.90
20845;DHT22;10583;49.084;8.646;2023-02-27T03:49:56;-1.40;99.90
20845;DHT22;10583;49.084;8.646;2023-02-27T03:52:23;-1.40;99.90
20845;DHT22;10583;49.084;8.646;2023-02-27T03:54:54;-1.50;99.90
20845;DHT22;10583;49.084;8.646;2023-02-27T03:57:22;-1.50;99.90
20845;DHT22;10583;49.084;8.646;2023-02-27T03:59:49;-1.50;99.90
20845;DHT22;10583;49.084;8.646;2023-02-27T04:02:16;-1.50;99.90
20845;DHT22;10583;49.084;8.646;2023-02-27T04:04:43;-1.50;99.90
20845;DHT22;10583;49.084;8.646;2023-02-27T04:07:15;-1.50;99.90
20845;DHT22;10583;49.084;8.646;2023-02-27T04:13:03;-1.50;99.90
20845;DHT22;10583;49.084;8.646;2023-02-27T04:15:40;-1.50;99.90
20845;DHT22;10583;49.084;8.646;2023-02-27T04:18:20;-1.50;99.90
20845;DHT22;10583;49.084;8.646;2023-02-27T04:20:53;-1.50;99.90
20845;DHT22;10583;49.084;8.646;2023-02-27T04:23:27;-1.60;99.90
20845;DHT22;10583;49.084;8.646;2023-02-27T04:26:08;-1.60;99.90
20845;DHT22;10583;49.084;8.646;2023-02-27T04:28:42;-1.60;99.90
20845;DHT22;10583;49.084;8.646;2023-02-27T04:31:16;-1.60;99.90
20845;DHT22;10583;49.084;8.646;2023-02-27T04:33:48;-1.60;99.90
20845;DHT22;10583;49.084;8.646;2023-02-27T04:36:22;-1.60;99.90
20845;DHT22;10583;49.084;8.646;2023-02-27T04:38:54;-1.60;99.90
20845;DHT22;10583;49.084;8.646;2023-02-27T04:41:28;-1.60;99.90
20845;DHT22;10583;49.084;8.646;2023-02-27T04:43:56;-1.60;99.90
20845;DHT22;10583;49.084;8.646;2023-02-27T04:46:26;-1.60;99.90
20845;DHT22;10583;49.084;8.646;2023-02-27T04:48:58;-1.60;99.90
20845;DHT22;10583;49.084;8.646;2023-02-27T04:51:32;-1.60;99.90
20845;DHT22;10583;49.084;8.646;2023-02-27T04:54:05;-1.60;99.90
20845;DHT22;10583;49.084;8.646;2023-02-27T04:56:39;-1.60;99.90
20845;DHT22;10583;49.084;8.646;2023-02-27T04:59:09;-1.60;99.90
20845;DHT22;10583;49.084;8.646;2023-02-27T05:01:40;-1.60;99.90
20845;DHT22;10583;49.084;8.646;2023-02-27T05:04:13;-1.70;99.90
20845;DHT22;10583;49.084;8.646;2023-02-27T05:06:42;-1.60;99.90
20845;DHT22;10583;49.084;8.646;2023-02-27T05:09:13;-1.60;99.90
20845;DHT22;10583;49.084;8.646;2023-02-27T05:11:46;-1.60;99.90
20845;DHT22;10583;49.084;8.646;2023-02-27T05:14:17;-1.70;99.90
20845;DHT22;10583;49.084;8.646;2023-02-27T05:16:48;-1.70;99.90
20845;DHT22;10583;49.084;8.646;2023-02-27T05:19:17;-1.70;99.90
20845;DHT22;10583;49.084;8.646;2023-02-27T05:21:50;-1.70;99.90
20845;DHT22;10583;49.084;8.646;2023-02-27T05:24:23;-1.70;99.90
20845;DHT22;10583;49.084;8.646;2023-02-27T05:27:08;-1.70;99.90
20845;DHT22;10583;49.084;8.646;2023-02-27T05:29:44;-1.70;99.90
20845;DHT22;10583;49.084;8.646;2023-02-27T05:32:21;-1.70;99.90
20845;DHT22;10583;49.084;8.646;2023-02-27T05:34:55;-1.70;99.90
20845;DHT22;10583;49.084;8.646;2023-02-27T05:37:27;-1.80;99.90
20845;DHT22;10583;49.084;8.646;2023-02-27T05:39:56;-1.70;99.90
20845;DHT22;10583;49.084;8.646;2023-02-27T05:42:28;-1.80;99.90
20845;DHT22;10583;49.084;8.646;2023-02-27T05:45:00;-1.80;99.90
20845;DHT22;10583;49.084;8.646;2023-02-27T05:47:30;-1.80;99.90
20845;DHT22;10583;49.084;8.646;2023-02-27T05:50:03;-1.80;99.90
20845;DHT22;10583;49.084;8.646;2023-02-27T05:52:31;-1.80;99.90
20845;DHT22;10583;49.084;8.646;2023-02-27T05:55:02;-1.80;99.90
20845;DHT22;10583;49.084;8.646;2023-02-27T05:57:35;-1.80;99.90
20845;DHT22;10583;49.084;8.646;2023-02-27T06:00:09;-1.80;99.90
20845;DHT22;10583;49.084;8.646;2023-02-27T06:02:37;-1.80;99.90
20845;DHT22;10583;49.084;8.646;2023-02-27T06:05:05;-1.80;99.90
20845;DHT22;10583;49.084;8.646;2023-02-27T06:07:33;-1.80;99.90
20845;DHT22;10583;49.084;8.646;2023-02-27T06:09:59;-1.80;99.90
20845;DHT22;10583;49.084;8.646;2023-02-27T06:12:26;-1.80;99.90
20845;DHT22;10583;49.084;8.646;2023-02-27T06:14:54;-1.70;99.90
20845;DHT22;10583;49.084;8.646;2023-02-27T06:17:21;-1.70;99.90
20845;DHT22;10583;49.084;8.646;2023-02-27T06:19:47;-1.70;99.90
20845;DHT22;10583;49.084;8.646;2023-02-27T06:22:14;-1.70;99.90
20845;DHT22;10583;49.084;8.646;2023-02-27T06:24:41;-1.70;99.90
20845;DHT22;10583;49.084;8.646;2023-02-27T06:27:07;-1.70;99.90
20845;DHT22;10583;49.084;8.646;2023-02-27T06:29:34;-1.70;99.90
20845;DHT22;10583;49.084;8.646;2023-02-27T06:32:02;-1.70;99.90
20845;DHT22;10583;49.084;8.646;2023-02-27T06:34:29;-1.70;99.90
20845;DHT22;10583;49.084;8.646;2023-02-27T06:36:55;-1.60;99.90
20845;DHT22;10583;49.084;8.646;2023-02-27T06:39:22;-1.60;99.90
20845;DHT22;10583;49.084;8.646;2023-02-27T06:41:49;-1.60;99.90
20845;DHT22;10583;49.084;8.646;2023-02-27T06:44:16;-1.60;99.90
20845;DHT22;10583;49.084;8.646;2023-02-27T06:46:42;-1.60;99.90
20845;DHT22;10583;49.084;8.646;2023-02-27T06:49:10;-1.60;99.90
20845;DHT22;10583;49.084;8.646;2023-02-27T06:51:37;-1.60;99.90
20845;DHT22;10583;49.084;8.646;2023-02-27T06:54:04;-1.60;99.90
20845;DHT22;10583;49.084;8.646;2023-02-27T06:56:32;-1.50;99.90
20845;DHT22;10583;49.084;8.646;2023-02-27T06:58:59;-1.50;99.90
20845;DHT22;10583;49.084;8.646;2023-02-27T07:01:25;-1.50;99.90
20845;DHT22;10583;49.084;8.646;2023-02-27T07:03:52;-1.40;99.90
20845;DHT22;10583;49.084;8.646;2023-02-27T07:06:20;-1.30;99.90
20845;DHT22;10583;49.084;8.646;2023-02-27T07:08:47;-1.20;99.90
20845;DHT22;10583;49.084;8.646;2023-02-27T07:11:14;-1.20;99.90
20845;DHT22;10583;49.084;8.646;2023-02-27T07:13:40;-1.10;99.90
20845;DHT22;10583;49.084;8.646;2023-02-27T07:16:07;-1.00;99.90
20845;DHT22;10583;49.084;8.646;2023-02-27T07:18:34;-0.90;99.90
20845;DHT22;10583;49.084;8.646;2023-02-27T07:21:00;-0.80;99.90
20845;DHT22;10583;49.084;8.646;2023-02-27T07:23:29;-0.70;99.90
20845;DHT22;10583;49.084;8.646;2023-02-27T07:25:56;-0.60;99.90
20845;DHT22;10583;49.084;8.646;2023-02-27T07:28:23;-0.50;99.90
20845;DHT22;10583;49.084;8.646;2023-02-27T07:30:52;-0.40;99.90
20845;DHT22;10583;49.084;8.646;2023-02-27T07:33:19;-0.20;99.90
20845;DHT22;10583;49.084;8.646;2023-02-27T07:35:46;-0.10;99.90
20845;DHT22;10583;49.084;8.646;2023-02-27T07:38:13;0.00;99.90
20845;DHT22;10583;49.084;8.646;2023-02-27T07:40:41;0.20;99.90
20845;DHT22;10583;49.084;8.646;2023-02-27T07:43:07;0.20;99.90
20845;DHT22;10583;49.084;8.646;2023-02-27T07:45:34;0.30;99.90
20845;DHT22;10583;49.084;8.646;2023-02-27T07:48:01;0.40;99.90
20845;DHT22;10583;49.084;8.646;2023-02-27T07:50:27;0.60;99.90
20845;DHT22;10583;49.084;8.646;2023-02-27T07:52:54;0.60;99.90
20845;DHT22;10583;49.084;8.646;2023-02-27T07:55:21;0.70;99.90
20845;DHT22;10583;49.084;8.646;2023-02-27T07:57:49;0.80;99.90
20845;DHT22;10583;49.084;8.646;2023-02-27T08:00:17;0.90;99.90
20845;DHT22;10583;49.084;8.646;2023-02-27T08:02:43;1.00;99.90
20845;DHT22;10583;49.084;8.646;2023-02-27T08:05:10;1.00;99.90
20845;DHT22;10583;49.084;8.646;2023-02-27T08:07:37;1.10;99.90
20845;DHT22;10583;49.084;8.646;2023-02-27T08:10:04;1.10;99.90
20845;DHT22;10583;49.084;8.646;2023-02-27T08:12:31;1.30;99.90
20845;DHT22;10583;49.084;8.646;2023-02-27T08:14:59;1.40;99.90
20845;DHT22;10583;49.084;8.646;2023-02-27T08:17:26;1.50;99.90
20845;DHT22;10583;49.084;8.646;2023-02-27T08:19:53;1.60;99.90
20845;DHT22;10583;49.084;8.646;2023-02-27T08:22:19;1.80;99.90
20845;DHT22;10583;49.084;8.646;2023-02-27T08:24:46;2.00;99.90
20845;DHT22;10583;49.084;8.646;2023-02-27T08:27:12;2.20;99.90
20845;DHT22;10583;49.084;8.646;2023-02-27T08:29:40;2.10;99.90
20845;DHT22;10583;49.084;8.646;2023-02-27T08:32:09;2.00;99.90
20845;DHT22;10583;49.084;8.646;2023-02-27T08:34:35;2.20;99.90
20845;DHT22;10583;49.084;8.646;2023-02-27T08:37:02;2.20;99.90
20845;DHT22;10583;49.084;8.646;2023-02-27T08:39:32;2.00;99.90
20845;DHT22;10583;49.084;8.646;2023-02-27T08:41:59;1.90;99.90
20845;DHT22;10583;49.084;8.646;2023-02-27T08:44:25;1.80;99.90
20845;DHT22;10583;49.084;8.646;2023-02-27T08:46:52;1.80;99.90
20845;DHT22;10583;49.084;8.646;2023-02-27T08:49:20;2.10;99.90
20845;DHT22;10583;49.084;8.646;2023-02-27T08:51:49;2.40;99.90
20845;DHT22;10583;49.084;8.646;2023-02-27T08:54:16;2.60;99.90
20845;DHT22;10583;49.084;8.646;2023-02-27T08:56:43;2.30;99.90
20845;DHT22;10583;49.084;8.646;2023-02-27T08:59:10;2.20;99.90
20845;DHT22;10583;49.084;8.646;2023-02-27T09:01:37;2.40;99.90
20845;DHT22;10583;49.084;8.646;2023-02-27T09:04:04;2.50;99.90
20845;DHT22;10583;49.084;8.646;2023-02-27T09:06:33;2.50;99.90
20845;DHT22;10583;49.084;8.646;2023-02-27T09:09:00;2.70;99.90
20845;DHT22;10583;49.084;8.646;2023-02-27T09:11:28;2.90;99.90
20845;DHT22;10583;49.084;8.646;2023-02-27T09:13:55;3.00;99.90
20845;DHT22;10583;49.084;8.646;2023-02-27T09:16:22;3.10;99.90
20845;DHT22;10583;49.084;8.646;2023-02-27T09:18:49;3.10;99.90
20845;DHT22;10583;49.084;8.646;2023-02-27T09:21:16;3.00;99.90
20845;DHT22;10583;49.084;8.646;2023-02-27T09:23:44;3.30;99.90
20845;DHT22;10583;49.084;8.646;2023-02-27T09:26:10;3.30;99.90
20845;DHT22;10583;49.084;8.646;2023-02-27T09:28:37;3.40;99.90
20845;DHT22;10583;49.084;8.646;2023-02-27T09:31:06;3.40;99.90
20845;DHT22;10583;49.084;8.646;2023-02-27T09:33:33;3.70;99.90
20845;DHT22;10583;49.084;8.646;2023-02-27T09:36:00;3.80;99.90
20845;DHT22;10583;49.084;8.646;2023-02-27T09:38:26;3.90;99.90
20845;DHT22;10583;49.084;8.646;2023-02-27T09:40:56;3.80;99.90
20845;DHT22;10583;49.084;8.646;2023-02-27T09:43:36;3.60;99.90
20845;DHT22;10583;49.084;8.646;2023-02-27T09:46:05;3.50;99.90
20845;DHT22;10583;49.084;8.646;2023-02-27T09:48:35;3.80;99.90
20845;DHT22;10583;49.084;8.646;2023-02-27T09:51:04;4.40;99.90
20845;DHT22;10583;49.084;8.646;2023-02-27T09:53:34;4.50;99.90
20845;DHT22;10583;49.084;8.646;2023-02-27T09:56:07;4.80;99.90
20845;DHT22;10583;49.084;8.646;2023-02-27T09:58:41;4.70;98.70
20845;DHT22;10583;49.084;8.646;2023-02-27T10:01:13;4.50;99.00
20845;DHT22;10583;49.084;8.646;2023-02-27T10:03:57;4.70;99.90
20845;DHT22;10583;49.084;8.646;2023-02-27T10:06:32;4.70;98.90
20845;DHT22;10583;49.084;8.646;2023-02-27T10:09:10;4.60;99.70
20845;DHT22;10583;49.084;8.646;2023-02-27T10:11:48;4.90;99.90
20845;DHT22;10583;49.084;8.646;2023-02-27T10:14:27;5.40;98.90
20845;DHT22;10583;49.084;8.646;2023-02-27T10:16:56;5.60;98.40
20845;DHT22;10583;49.084;8.646;2023-02-27T10:19:27;5.70;98.30
20845;DHT22;10583;49.084;8.646;2023-02-27T10:21:56;5.50;97.20
20845;DHT22;10583;49.084;8.646;2023-02-27T10:24:27;5.30;97.10
20845;DHT22;10583;49.084;8.646;2023-02-27T10:26:58;5.10;97.30
20845;DHT22;10583;49.084;8.646;2023-02-27T10:29:29;5.10;97.90
20845;DHT22;10583;49.084;8.646;2023-02-27T10:32:00;5.10;97.10
20845;DHT22;10583;49.084;8.646;2023-02-27T10:34:28;4.90;98.20
20845;DHT22;10583;49.084;8.646;2023-02-27T10:36:58;4.90;97.10
20845;DHT22;10583;49.084;8.646;2023-02-27T10:39:26;5.00;97.60
20845;DHT22;10583;49.084;8.646;2023-02-27T10:41:58;5.30;97.30
20845;DHT22;10583;49.084;8.646;2023-02-27T10:44:28;5.40;96.80
20845;DHT22;10583;49.084;8.646;2023-02-27T10:46:56;5.20;96.40
20845;DHT22;10583;49.084;8.646;2023-02-27T10:49:22;5.20;96.20
20845;DHT22;10583;49.084;8.646;2023-02-27T10:52:05;5.10;97.00
20845;DHT22;10583;49.084;8.646;2023-02-27T10:54:33;5.30;96.60
20845;DHT22;10583;49.084;8.646;2023-02-27T10:57:03;5.30;96.30
20845;DHT22;10583;49.084;8.646;2023-02-27T10:59:32;5.40;96.10
20845;DHT22;10583;49.084;8.646;2023-02-27T11:02:02;5.20;96.30
20845;DHT22;10583;49.084;8.646;2023-02-27T11:04:33;5.30;97.10
20845;DHT22;10583;49.084;8.646;2023-02-27T11:07:02;5.70;96.80
20845;DHT22;10583;49.084;8.646;2023-02-27T11:09:30;5.60;95.90
20845;DHT22;10583;49.084;8.646;2023-02-27T11:12:11;5.80;95.90
20845;DHT22;10583;49.084;8.646;2023-02-27T11:14:49;5.50;95.80
20845;DHT22;10583;49.084;8.646;2023-02-27T11:17:25;5.40;95.80
20845;DHT22;10583;49.084;8.646;2023-02-27T11:19:53;5.50;95.90
20845;DHT22;10583;49.084;8.646;2023-02-27T11:22:22;5.50;95.00
20845;DHT22;10583;49.084;8.646;2023-02-27T11:24:50;5.60;95.00
20845;DHT22;10583;49.084;8.646;2023-02-27T11:27:20;5.60;95.70
20845;DHT22;10583;49.084;8.646;2023-02-27T11:29:58;5.80;95.80
20845;DHT22;10583;49.084;8.646;2023-02-27T11:32:27;5.90;94.80
20845;DHT22;10583;49.084;8.646;2023-02-27T11:34:55;5.90;95.00
20845;DHT22;10583;49.084;8.646;2023-02-27T11:37:27;6.10;94.40
20845;DHT22;10583;49.084;8.646;2023-02-27T11:40:01;6.10;94.20
20845;DHT22;10583;49.084;8.646;2023-02-27T11:42:32;6.20;94.40
20845;DHT22;10583;49.084;8.646;2023-02-27T11:45:02;6.40;94.50
20845;DHT22;10583;49.084;8.646;2023-02-27T11:47:32;6.30;94.50
20845;DHT22;10583;49.084;8.646;2023-02-27T11:50:19;6.10;93.70
20845;DHT22;10583;49.084;8.646;2023-02-27T11:52:53;5.80;93.80
20845;DHT22;10583;49.084;8.646;2023-02-27T11:55:25;5.90;93.60
20845;DHT22;10583;49.084;8.646;2023-02-27T11:57:59;5.70;93.50
20845;DHT22;10583;49.084;8.646;2023-02-27T12:00:30;5.50;93.00
20845;DHT22;10583;49.084;8.646;2023-02-27T12:03:04;5.60;93.40
20845;DHT22;10583;49.084;8.646;2023-02-27T12:05:36;5.80;94.20
20845;DHT22;10583;49.084;8.646;2023-02-27T12:08:10;6.10;93.20
20845;DHT22;10583;49.084;8.646;2023-02-27T12:10:44;6.10;92.90
20845;DHT22;10583;49.084;8.646;2023-02-27T12:13:16;6.10;92.60
20845;DHT22;10583;49.084;8.646;2023-02-27T12:15:47;6.10;93.10
20845;DHT22;10583;49.084;8.646;2023-02-27T12:18:18;6.00;93.10
20845;DHT22;10583;49.084;8.646;2023-02-27T12:20:51;6.40;93.00
20845;DHT22;10583;49.084;8.646;2023-02-27T12:23:25;6.50;92.10
20845;DHT22;10583;49.084;8.646;2023-02-27T12:25:59;6.10;91.50
20845;DHT22;10583;49.084;8.646;2023-02-27T12:28:39;5.80;92.30
20845;DHT22;10583;49.084;8.646;2023-02-27T12:31:41;6.00;91.90
20845;DHT22;10583;49.084;8.646;2023-02-27T12:34:19;6.00;91.60
20845;DHT22;10583;49.084;8.646;2023-02-27T12:36:47;6.20;91.40
20845;DHT22;10583;49.084;8.646;2023-02-27T12:39:17;5.80;91.60
20845;DHT22;10583;49.084;8.646;2023-02-27T12:42:03;5.70;91.10
20845;DHT22;10583;49.084;8.646;2023-02-27T12:44:48;5.90;91.30
20845;DHT22;10583;49.084;8.646;2023-02-27T12:47:28;6.10;90.30
20845;DHT22;10583;49.084;8.646;2023-02-27T12:50:02;5.40;91.10
20845;DHT22;10583;49.084;8.646;2023-02-27T12:52:40;5.00;92.80
20845;DHT22;10583;49.084;8.646;2023-02-27T12:55:13;5.30;93.20
20845;DHT22;10583;49.084;8.646;2023-02-27T12:58:13;5.60;92.20
20845;DHT22;10583;49.084;8.646;2023-02-27T13:00:45;5.50;91.90
20845;DHT22;10583;49.084;8.646;2023-02-27T13:03:16;5.60;92.00
20845;DHT22;10583;49.084;8.646;2023-02-27T13:05:52;5.60;92.10
20845;DHT22;10583;49.084;8.646;2023-02-27T13:08:47;5.20;92.20
20845;DHT22;10583;49.084;8.646;2023-02-27T13:11:22;4.70;92.60
20845;DHT22;10583;49.084;8.646;2023-02-27T13:13:54;4.70;92.00
20845;DHT22;10583;49.084;8.646;2023-02-27T13:16:27;4.60;92.40
20845;DHT22;10583;49.084;8.646;2023-02-27T13:18:58;4.40;92.20
20845;DHT22;10583;49.084;8.646;2023-02-27T13:21:32;4.50;92.40
20845;DHT22;10583;49.084;8.646;2023-02-27T13:24:14;4.70;92.70
20845;DHT22;10583;49.084;8.646;2023-02-27T13:26:47;4.70;92.30
20845;DHT22;10583;49.084;8.646;2023-02-27T13:29:17;4.50;93.00
20845;DHT22;10583;49.084;8.646;2023-02-27T13:31:53;4.50;93.50
20845;DHT22;10583;49.084;8.646;2023-02-27T13:34:29;4.60;93.30
20845;DHT22;10583;49.084;8.646;2023-02-27T13:37:01;4.60;93.50
20845;DHT22;10583;49.084;8.646;2023-02-27T13:39:51;4.60;93.10
20845;DHT22;10583;49.084;8.646;2023-02-27T13:42:51;4.70;93.30
20845;DHT22;10583;49.084;8.646;2023-02-27T13:48:50;4.30;93.60
20845;DHT22;10583;49.084;8.646;2023-02-27T13:51:46;4.20;94.20
20845;DHT22;10583;49.084;8.646;2023-02-27T13:54:29;4.40;94.40
20845;DHT22;10583;49.084;8.646;2023-02-27T13:57:24;4.70;93.60
20845;DHT22;10583;49.084;8.646;2023-02-27T13:59:57;4.80;93.40
20845;DHT22;10583;49.084;8.646;2023-02-27T14:02:32;4.60;93.10
20845;DHT22;10583;49.084;8.646;2023-02-27T14:05:03;4.60;93.30
20845;DHT22;10583;49.084;8.646;2023-02-27T14:07:32;4.50;93.30
20845;DHT22;10583;49.084;8.646;2023-02-27T14:10:02;4.40;94.00
20845;DHT22;10583;49.084;8.646;2023-02-27T14:12:32;4.30;93.90
20845;DHT22;10583;49.084;8.646;2023-02-27T14:15:00;4.20;93.80
20845;DHT22;10583;49.084;8.646;2023-02-27T14:17:40;4.10;94.60
20845;DHT22;10583;49.084;8.646;2023-02-27T14:20:12;4.30;94.70
20845;DHT22;10583;49.084;8.646;2023-02-27T14:25:43;4.80;94.10
20845;DHT22;10583;49.084;8.646;2023-02-27T14:28:20;4.70;93.80
20845;DHT22;10583;49.084;8.646;2023-02-27T14:30:53;4.40;93.40
20845;DHT22;10583;49.084;8.646;2023-02-27T14:33:23;4.10;94.00
20845;DHT22;10583;49.084;8.646;2023-02-27T14:35:58;4.00;94.50
20845;DHT22;10583;49.084;8.646;2023-02-27T14:38:26;3.80;94.90
20845;DHT22;10583;49.084;8.646;2023-02-27T14:41:07;3.80;94.60
20845;DHT22;10583;49.084;8.646;2023-02-27T14:43:41;3.90;94.40
20845;DHT22;10583;49.084;8.646;2023-02-27T14:46:22;4.00;94.50
20845;DHT22;10583;49.084;8.646;2023-02-27T14:48:53;4.00;94.10
20845;DHT22;10583;49.084;8.646;2023-02-27T14:51:22;4.00;95.40
20845;DHT22;10583;49.084;8.646;2023-02-27T14:53:59;4.00;95.20
20845;DHT22;10583;49.084;8.646;2023-02-27T14:56:26;4.10;95.30
20845;DHT22;10583;49.084;8.646;2023-02-27T14:58:52;4.20;93.90
20845;DHT22;10583;49.084;8.646;2023-02-27T15:01:21;4.10;94.10
20845;DHT22;10583;49.084;8.646;2023-02-27T15:03:50;4.00;93.90
20845;DHT22;10583;49.084;8.646;2023-02-27T15:06:19;4.00;94.50
20845;DHT22;10583;49.084;8.646;2023-02-27T15:08:52;4.00;94.20
20845;DHT22;10583;49.084;8.646;2023-02-27T15:11:21;4.00;94.10
20845;DHT22;10583;49.084;8.646;2023-02-27T15:13:54;3.90;94.10
20845;DHT22;10583;49.084;8.646;2023-02-27T15:16:31;3.90;94.60
20845;DHT22;10583;49.084;8.646;2023-02-27T15:19:02;3.80;94.90
20845;DHT22;10583;49.084;8.646;2023-02-27T15:21:32;3.60;94.30
20845;DHT22;10583;49.084;8.646;2023-02-27T15:24:06;3.50;94.40
20845;DHT22;10583;49.084;8.646;2023-02-27T15:26:35;3.50;93.90
20845;DHT22;10583;49.084;8.646;2023-02-27T15:29:03;3.40;94.40
20845;DHT22;10583;49.084;8.646;2023-02-27T15:31:30;3.30;94.40
20845;DHT22;10583;49.084;8.646;2023-02-27T15:33:58;3.30;94.50
20845;DHT22;10583;49.084;8.646;2023-02-27T15:36:28;3.40;94.60
20845;DHT22;10583;49.084;8.646;2023-02-27T15:39:06;3.50;94.00
20845;DHT22;10583;49.084;8.646;2023-02-27T15:41:33;3.50;94.40
20845;DHT22;10583;49.084;8.646;2023-02-27T15:44:01;3.60;94.40
20845;DHT22;10583;49.084;8.646;2023-02-27T15:46:28;3.70;94.40
20845;DHT22;10583;49.084;8.646;2023-02-27T15:48:55;3.70;93.80
20845;DHT22;10583;49.084;8.646;2023-02-27T15:51:24;3.70;93.40
20845;DHT22;10583;49.084;8.646;2023-02-27T15:53:53;3.70;94.20
20845;DHT22;10583;49.084;8.646;2023-02-27T15:56:25;3.60;94.30
20845;DHT22;10583;49.084;8.646;2023-02-27T15:58:53;3.50;94.30
20845;DHT22;10583;49.084;8.646;2023-02-27T16:01:23;3.40;94.80
20845;DHT22;10583;49.084;8.646;2023-02-27T16:03:52;3.30;95.40
20845;DHT22;10583;49.084;8.646;2023-02-27T16:06:23;3.30;95.20
20845;DHT22;10583;49.084;8.646;2023-02-27T16:08:54;3.30;95.20
20845;DHT22;10583;49.084;8.646;2023-02-27T16:11:24;3.30;95.30
20845;DHT22;10583;49.084;8.646;2023-02-27T16:13:51;3.30;95.00
20845;DHT22;10583;49.084;8.646;2023-02-27T16:16:32;3.30;95.20
20845;DHT22;10583;49.084;8.646;2023-02-27T16:19:12;3.30;94.80